sensor_id;sensor_type;location;lat;lon;timestamp;P1;durP1;ratioP1;P2;durP2;ratioP2
65077;SDS011;51672;51.230;-2.322;2023-02-21T00:00:36;5.60;;;2.42;;
65077;SDS011;51672;51.230;-2.322;2023-02-21T00:04:36;5.68;;;2.72;;
65077;SDS011;51672;51.230;-2.322;2023-02-21T00:08:37;5.78;;;2.40;;
65077;SDS011;51672;51.230;-2.322;2023-02-21T00:12:38;7.40;;;2.90;;
65077;SDS011;51672;51.230;-2.322;2023-02-21T00:16:38;6.15;;;2.58;;
65077;SDS011;51672;51.230;-2.322;2023-02-21T00:20:38;5.72;;;2.70;;
65077;SDS011;51672;51.230;-2.322;2023-02-21T00:24:39;5.27;;;2.43;;
65077;SDS011;51672;51.230;-2.322;2023-02-21T00:28:39;7.18;;;2.60;;
65077;SDS011;51672;51.230;-2.322;2023-02-21T00:32:39;5.80;;;2.60;;
65077;SDS011;51672;51.230;-2.322;2023-02-21T00:36:40;6.13;;;2.85;;
65077;SDS011;51672;51.230;-2.322;2023-02-21T00:40:40;6.22;;;2.83;;
65077;SDS011;51672;51.230;-2.322;2023-02-21T00:44:41;6.95;;;2.30;;
65077;SDS011;51672;51.230;-2.322;2023-02-21T00:48:41;5.85;;;2.45;;
65077;SDS011;51672;51.230;-2.322;2023-02-21T00:52:42;7.50;;;2.37;;
65077;SDS011;51672;51.230;-2.322;2023-02-21T00:56:43;5.63;;;2.28;;
65077;SDS011;51672;51.230;-2.322;2023-02-21T01:00:44;6.28;;;2.42;;
65077;SDS011;51672;51.230;-2.322;2023-02-21T01:04:44;5.10;;;2.40;;
65077;SDS011;51672;51.230;-2.322;2023-02-21T01:08:45;5.28;;;2.15;;
65077;SDS011;51672;51.230;-2.322;2023-02-21T01:12:46;8.50;;;2.20;;
65077;SDS011;51672;51.230;-2.322;2023-02-21T01:16:46;5.40;;;2.70;;
65077;SDS011;51672;51.230;-2.322;2023-02-21T01:20:53;5.95;;;2.72;;
65077;SDS011;51672;51.230;-2.322;2023-02-21T01:24:54;6.65;;;3.08;;
65077;SDS011;51672;51.230;-2.322;2023-02-21T01:28:55;6.53;;;2.67;;
65077;SDS011;51672;51.230;-2.322;2023-02-21T01:32:55;6.37;;;2.83;;
65077;SDS011;51672;51.230;-2.322;2023-02-21T01:36:56;6.30;;;2.88;;
65077;SDS011;51672;51.230;-2.322;2023-02-21T01:40:56;6.30;;;2.75;;
65077;SDS011;51672;51.230;-2.322;2023-02-21T01:49:22;5.95;;;2.60;;
65077;SDS011;51672;51.230;-2.322;2023-02-21T01:53:23;7.13;;;2.63;;
65077;SDS011;51672;51.230;-2.322;2023-02-21T01:57:25;6.93;;;2.58;;
65077;SDS011;51672;51.230;-2.322;2023-02-21T02:01:35;5.30;;;2.28;;
65077;SDS011;51672;51.230;-2.322;2023-02-21T02:05:54;7.53;;;2.55;;
65077;SDS011;51672;51.230;-2.322;2023-02-21T02:10:07;5.30;;;2.22;;
65077;SDS011;51672;51.230;-2.322;2023-02-21T02:34:26;5.85;;;2.60;;
65077;SDS011;51672;51.230;-2.322;2023-02-21T02:46:31;5.07;;;2.17;;
65077;SDS011;51672;51.230;-2.322;2023-02-21T02:50:17;4.95;;;2.20;;
65077;SDS011;51672;51.230;-2.322;2023-02-21T02:54:03;4.13;;;1.40;;
65077;SDS011;51672;51.230;-2.322;2023-02-21T02:57:45;4.35;;;1.80;;
65077;SDS011;51672;51.230;-2.322;2023-02-21T03:09:16;3.95;;;1.40;;
65077;SDS011;51672;51.230;-2.322;2023-02-21T03:17:10;4.18;;;1.60;;
65077;SDS011;51672;51.230;-2.322;2023-02-21T03:20:57;5.43;;;1.88;;
65077;SDS011;51672;51.230;-2.322;2023-02-21T03:24:41;4.45;;;1.67;;
65077;SDS011;51672;51.230;-2.322;2023-02-21T03:28:25;6.22;;;1.90;;
65077;SDS011;51672;51.230;-2.322;2023-02-21T03:35:58;5.68;;;2.30;;
65077;SDS011;51672;51.230;-2.322;2023-02-21T03:39:41;5.07;;;1.70;;
65077;SDS011;51672;51.230;-2.322;2023-02-21T03:43:23;5.53;;;1.73;;
65077;SDS011;51672;51.230;-2.322;2023-02-21T03:47:05;4.00;;;1.55;;
65077;SDS011;51672;51.230;-2.322;2023-02-21T03:50:47;4.10;;;1.50;;
65077;SDS011;51672;51.230;-2.322;2023-02-21T03:54:29;4.20;;;1.70;;
65077;SDS011;51672;51.230;-2.322;2023-02-21T03:58:11;4.53;;;1.67;;
65077;SDS011;51672;51.230;-2.322;2023-02-21T04:01:53;4.55;;;1.95;;
65077;SDS011;51672;51.230;-2.322;2023-02-21T04:05:35;4.68;;;1.77;;
65077;SDS011;51672;51.230;-2.322;2023-02-21T04:09:17;4.80;;;1.50;;
65077;SDS011;51672;51.230;-2.322;2023-02-21T04:12:59;4.68;;;1.58;;
65077;SDS011;51672;51.230;-2.322;2023-02-21T04:16:41;4.95;;;1.80;;
65077;SDS011;51672;51.230;-2.322;2023-02-21T04:20:23;4.57;;;1.87;;
65077;SDS011;51672;51.230;-2.322;2023-02-21T04:24:05;4.18;;;1.38;;
65077;SDS011;51672;51.230;-2.322;2023-02-21T04:27:48;4.10;;;1.52;;
65077;SDS011;51672;51.230;-2.322;2023-02-21T04:31:30;4.40;;;1.77;;
65077;SDS011;51672;51.230;-2.322;2023-02-21T04:35:13;6.07;;;1.70;;
65077;SDS011;51672;51.230;-2.322;2023-02-21T04:38:55;5.40;;;1.88;;
65077;SDS011;51672;51.230;-2.322;2023-02-21T04:42:37;4.85;;;1.67;;
65077;SDS011;51672;51.230;-2.322;2023-02-21T04:46:19;4.60;;;1.43;;
65077;SDS011;51672;51.230;-2.322;2023-02-21T04:50:01;4.88;;;1.75;;
65077;SDS011;51672;51.230;-2.322;2023-02-21T04:53:45;4.85;;;1.83;;
65077;SDS011;51672;51.230;-2.322;2023-02-21T04:57:28;5.33;;;2.20;;
65077;SDS011;51672;51.230;-2.322;2023-02-21T05:01:10;5.38;;;1.95;;
65077;SDS011;51672;51.230;-2.322;2023-02-21T05:04:53;4.80;;;1.80;;
65077;SDS011;51672;51.230;-2.322;2023-02-21T05:08:35;4.85;;;1.80;;
65077;SDS011;51672;51.230;-2.322;2023-02-21T05:12:17;4.68;;;1.95;;
65077;SDS011;51672;51.230;-2.322;2023-02-21T05:15:59;5.03;;;1.75;;
65077;SDS011;51672;51.230;-2.322;2023-02-21T05:19:41;5.40;;;2.05;;
65077;SDS011;51672;51.230;-2.322;2023-02-21T05:23:23;4.30;;;1.53;;
65077;SDS011;51672;51.230;-2.322;2023-02-21T05:27:15;5.40;;;2.00;;
65077;SDS011;51672;51.230;-2.322;2023-02-21T05:30:59;5.78;;;2.25;;
65077;SDS011;51672;51.230;-2.322;2023-02-21T05:34:41;6.00;;;1.97;;
65077;SDS011;51672;51.230;-2.322;2023-02-21T05:38:25;5.22;;;1.85;;
65077;SDS011;51672;51.230;-2.322;2023-02-21T05:42:08;4.97;;;1.70;;
65077;SDS011;51672;51.230;-2.322;2023-02-21T05:45:50;4.95;;;1.92;;
65077;SDS011;51672;51.230;-2.322;2023-02-21T05:49:32;5.20;;;1.98;;
65077;SDS011;51672;51.230;-2.322;2023-02-21T05:53:14;6.72;;;2.13;;
65077;SDS011;51672;51.230;-2.322;2023-02-21T05:56:56;5.68;;;2.15;;
65077;SDS011;51672;51.230;-2.322;2023-02-21T06:00:38;6.93;;;2.50;;
65077;SDS011;51672;51.230;-2.322;2023-02-21T06:04:20;8.48;;;2.63;;
65077;SDS011;51672;51.230;-2.322;2023-02-21T06:08:02;7.00;;;2.30;;
65077;SDS011;51672;51.230;-2.322;2023-02-21T06:11:44;4.70;;;1.90;;
65077;SDS011;51672;51.230;-2.322;2023-02-21T06:15:26;5.43;;;2.00;;
65077;SDS011;51672;51.230;-2.322;2023-02-21T06:19:09;6.70;;;2.53;;
65077;SDS011;51672;51.230;-2.322;2023-02-21T06:22:52;6.95;;;2.58;;
65077;SDS011;51672;51.230;-2.322;2023-02-21T06:26:35;5.75;;;2.25;;
65077;SDS011;51672;51.230;-2.322;2023-02-21T06:30:17;6.05;;;2.20;;
65077;SDS011;51672;51.230;-2.322;2023-02-21T06:34:03;6.10;;;2.70;;
65077;SDS011;51672;51.230;-2.322;2023-02-21T06:37:45;8.57;;;2.97;;
65077;SDS011;51672;51.230;-2.322;2023-02-21T06:41:28;6.60;;;2.40;;
65077;SDS011;51672;51.230;-2.322;2023-02-21T06:45:11;6.13;;;2.60;;
65077;SDS011;51672;51.230;-2.322;2023-02-21T06:48:53;7.37;;;2.67;;
65077;SDS011;51672;51.230;-2.322;2023-02-21T06:52:35;7.38;;;2.85;;
65077;SDS011;51672;51.230;-2.322;2023-02-21T06:56:17;7.55;;;2.78;;
65077;SDS011;51672;51.230;-2.322;2023-02-21T06:59:59;7.73;;;3.17;;
65077;SDS011;51672;51.230;-2.322;2023-02-21T07:03:43;7.40;;;3.10;;
65077;SDS011;51672;51.230;-2.322;2023-02-21T07:07:26;8.38;;;3.10;;
65077;SDS011;51672;51.230;-2.322;2023-02-21T07:11:08;8.20;;;3.08;;
65077;SDS011;51672;51.230;-2.322;2023-02-21T07:14:50;6.83;;;2.77;;
65077;SDS011;51672;51.230;-2.322;2023-02-21T07:18:33;8.05;;;3.40;;
65077;SDS011;51672;51.230;-2.322;2023-02-21T07:22:15;9.45;;;3.60;;
65077;SDS011;51672;51.230;-2.322;2023-02-21T07:25:57;6.97;;;3.13;;
65077;SDS011;51672;51.230;-2.322;2023-02-21T07:29:39;7.82;;;3.03;;
65077;SDS011;51672;51.230;-2.322;2023-02-21T07:33:21;8.13;;;3.20;;
65077;SDS011;51672;51.230;-2.322;2023-02-21T07:37:03;8.30;;;3.57;;
65077;SDS011;51672;51.230;-2.322;2023-02-21T07:40:45;9.05;;;3.63;;
65077;SDS011;51672;51.230;-2.322;2023-02-21T07:44:30;8.88;;;3.67;;
65077;SDS011;51672;51.230;-2.322;2023-02-21T07:48:13;8.55;;;3.13;;
65077;SDS011;51672;51.230;-2.322;2023-02-21T07:51:55;11.10;;;3.87;;
65077;SDS011;51672;51.230;-2.322;2023-02-21T07:55:55;10.02;;;3.85;;
65077;SDS011;51672;51.230;-2.322;2023-02-21T08:04:19;9.03;;;4.07;;
65077;SDS011;51672;51.230;-2.322;2023-02-21T08:08:02;10.00;;;4.40;;
65077;SDS011;51672;51.230;-2.322;2023-02-21T08:11:46;10.55;;;4.28;;
65077;SDS011;51672;51.230;-2.322;2023-02-21T08:15:29;12.33;;;5.20;;
65077;SDS011;51672;51.230;-2.322;2023-02-21T08:19:11;10.35;;;4.40;;
65077;SDS011;51672;51.230;-2.322;2023-02-21T08:22:53;10.93;;;5.25;;
65077;SDS011;51672;51.230;-2.322;2023-02-21T08:26:37;12.32;;;5.72;;
65077;SDS011;51672;51.230;-2.322;2023-02-21T08:30:24;12.03;;;5.97;;
65077;SDS011;51672;51.230;-2.322;2023-02-21T08:34:07;11.77;;;5.72;;
65077;SDS011;51672;51.230;-2.322;2023-02-21T08:37:49;13.02;;;6.22;;
65077;SDS011;51672;51.230;-2.322;2023-02-21T08:41:36;12.53;;;6.30;;
65077;SDS011;51672;51.230;-2.322;2023-02-21T08:45:23;11.75;;;5.95;;
65077;SDS011;51672;51.230;-2.322;2023-02-21T08:49:06;13.25;;;6.43;;
65077;SDS011;51672;51.230;-2.322;2023-02-21T08:52:51;15.20;;;7.20;;
65077;SDS011;51672;51.230;-2.322;2023-02-21T08:56:34;13.93;;;7.35;;
65077;SDS011;51672;51.230;-2.322;2023-02-21T09:00:17;13.57;;;6.90;;
65077;SDS011;51672;51.230;-2.322;2023-02-21T09:04:03;13.55;;;7.05;;
65077;SDS011;51672;51.230;-2.322;2023-02-21T09:07:49;12.00;;;6.40;;
65077;SDS011;51672;51.230;-2.322;2023-02-21T09:11:32;13.48;;;6.72;;
65077;SDS011;51672;51.230;-2.322;2023-02-21T09:15:16;13.93;;;6.90;;
65077;SDS011;51672;51.230;-2.322;2023-02-21T09:18:58;13.37;;;6.67;;
65077;SDS011;51672;51.230;-2.322;2023-02-21T09:22:47;12.82;;;6.78;;
65077;SDS011;51672;51.230;-2.322;2023-02-21T09:26:30;14.73;;;6.70;;
65077;SDS011;51672;51.230;-2.322;2023-02-21T09:30:17;12.90;;;6.22;;
65077;SDS011;51672;51.230;-2.322;2023-02-21T09:34:06;13.85;;;6.53;;
65077;SDS011;51672;51.230;-2.322;2023-02-21T09:38:09;15.98;;;7.57;;
65077;SDS011;51672;51.230;-2.322;2023-02-21T09:41:51;13.77;;;6.85;;
65077;SDS011;51672;51.230;-2.322;2023-02-21T09:45:36;13.07;;;6.67;;
65077;SDS011;51672;51.230;-2.322;2023-02-21T09:49:25;15.48;;;7.22;;
65077;SDS011;51672;51.230;-2.322;2023-02-21T09:53:13;13.70;;;6.88;;
65077;SDS011;51672;51.230;-2.322;2023-02-21T09:57:00;14.43;;;6.97;;
65077;SDS011;51672;51.230;-2.322;2023-02-21T10:00:46;14.73;;;7.30;;
65077;SDS011;51672;51.230;-2.322;2023-02-21T10:08:25;13.90;;;6.63;;
65077;SDS011;51672;51.230;-2.322;2023-02-21T10:16:22;10.80;;;5.90;;
65077;SDS011;51672;51.230;-2.322;2023-02-21T10:20:13;13.07;;;6.25;;
65077;SDS011;51672;51.230;-2.322;2023-02-21T10:24:02;13.20;;;6.40;;
65077;SDS011;51672;51.230;-2.322;2023-02-21T10:27:56;36.20;;;13.20;;
65077;SDS011;51672;51.230;-2.322;2023-02-21T10:31:40;15.52;;;6.90;;
65077;SDS011;51672;51.230;-2.322;2023-02-21T10:35:23;12.03;;;6.10;;
65077;SDS011;51672;51.230;-2.322;2023-02-21T10:39:27;11.82;;;6.07;;
65077;SDS011;51672;51.230;-2.322;2023-02-21T10:43:33;10.05;;;4.95;;
65077;SDS011;51672;51.230;-2.322;2023-02-21T10:47:25;9.80;;;4.97;;
65077;SDS011;51672;51.230;-2.322;2023-02-21T10:51:31;8.95;;;4.70;;
65077;SDS011;51672;51.230;-2.322;2023-02-21T10:55:18;11.25;;;4.68;;
65077;SDS011;51672;51.230;-2.322;2023-02-21T11:11:08;8.25;;;3.80;;
65077;SDS011;51672;51.230;-2.322;2023-02-21T11:19:03;6.55;;;2.80;;
65077;SDS011;51672;51.230;-2.322;2023-02-21T11:26:54;5.60;;;2.70;;
65077;SDS011;51672;51.230;-2.322;2023-02-21T11:39:35;5.80;;;2.78;;
65077;SDS011;51672;51.230;-2.322;2023-02-21T11:43:53;7.20;;;2.87;;
65077;SDS011;51672;51.230;-2.322;2023-02-21T11:51:48;8.23;;;3.33;;
65077;SDS011;51672;51.230;-2.322;2023-02-21T12:04:03;7.53;;;3.15;;
65077;SDS011;51672;51.230;-2.322;2023-02-21T12:08:42;7.13;;;3.47;;
65077;SDS011;51672;51.230;-2.322;2023-02-21T12:21:06;6.80;;;3.25;;
65077;SDS011;51672;51.230;-2.322;2023-02-21T12:37:57;5.40;;;2.40;;
65077;SDS011;51672;51.230;-2.322;2023-02-21T17:33:52;13.95;;;7.35;;
65077;SDS011;51672;51.230;-2.322;2023-02-21T17:37:36;14.35;;;8.05;;
65077;SDS011;51672;51.230;-2.322;2023-02-21T17:41:19;15.53;;;8.33;;
65077;SDS011;51672;51.230;-2.322;2023-02-21T17:45:01;14.75;;;8.50;;
65077;SDS011;51672;51.230;-2.322;2023-02-21T17:48:43;14.73;;;8.77;;
65077;SDS011;51672;51.230;-2.322;2023-02-21T17:52:26;14.63;;;8.77;;
65077;SDS011;51672;51.230;-2.322;2023-02-21T17:56:08;15.43;;;8.90;;
65077;SDS011;51672;51.230;-2.322;2023-02-21T17:59:50;15.95;;;10.40;;
65077;SDS011;51672;51.230;-2.322;2023-02-21T18:03:32;17.92;;;10.82;;
65077;SDS011;51672;51.230;-2.322;2023-02-21T18:07:14;19.15;;;11.32;;
65077;SDS011;51672;51.230;-2.322;2023-02-21T18:10:56;21.92;;;11.45;;
65077;SDS011;51672;51.230;-2.322;2023-02-21T18:14:38;19.17;;;11.15;;
65077;SDS011;51672;51.230;-2.322;2023-02-21T18:18:20;21.67;;;12.17;;
65077;SDS011;51672;51.230;-2.322;2023-02-21T18:22:02;20.75;;;12.45;;
65077;SDS011;51672;51.230;-2.322;2023-02-21T18:25:47;22.70;;;12.30;;
65077;SDS011;51672;51.230;-2.322;2023-02-21T18:29:29;22.57;;;13.27;;
65077;SDS011;51672;51.230;-2.322;2023-02-21T18:33:12;22.27;;;12.85;;
65077;SDS011;51672;51.230;-2.322;2023-02-21T18:36:54;23.13;;;14.00;;
65077;SDS011;51672;51.230;-2.322;2023-02-21T18:40:36;22.10;;;13.07;;
65077;SDS011;51672;51.230;-2.322;2023-02-21T18:44:25;27.52;;;15.02;;
65077;SDS011;51672;51.230;-2.322;2023-02-21T18:48:07;25.48;;;15.65;;
65077;SDS011;51672;51.230;-2.322;2023-02-21T18:51:49;22.60;;;13.85;;
65077;SDS011;51672;51.230;-2.322;2023-02-21T18:55:32;30.13;;;15.93;;
65077;SDS011;51672;51.230;-2.322;2023-02-21T18:59:18;26.50;;;16.05;;
65077;SDS011;51672;51.230;-2.322;2023-02-21T19:03:03;29.15;;;16.75;;
65077;SDS011;51672;51.230;-2.322;2023-02-21T19:06:46;25.37;;;15.83;;
65077;SDS011;51672;51.230;-2.322;2023-02-21T19:10:28;26.67;;;15.57;;
65077;SDS011;51672;51.230;-2.322;2023-02-21T19:14:11;28.77;;;16.45;;
65077;SDS011;51672;51.230;-2.322;2023-02-21T19:17:56;27.20;;;17.35;;
65077;SDS011;51672;51.230;-2.322;2023-02-21T19:21:39;28.73;;;17.10;;
65077;SDS011;51672;51.230;-2.322;2023-02-21T19:25:24;28.73;;;18.05;;
65077;SDS011;51672;51.230;-2.322;2023-02-21T19:29:08;30.98;;;17.38;;
65077;SDS011;51672;51.230;-2.322;2023-02-21T19:32:50;30.27;;;17.70;;
65077;SDS011;51672;51.230;-2.322;2023-02-21T19:36:32;30.85;;;18.23;;
65077;SDS011;51672;51.230;-2.322;2023-02-21T19:40:14;29.67;;;18.05;;
65077;SDS011;51672;51.230;-2.322;2023-02-21T19:43:56;32.03;;;18.27;;
65077;SDS011;51672;51.230;-2.322;2023-02-21T19:47:38;35.08;;;19.50;;
65077;SDS011;51672;51.230;-2.322;2023-02-21T19:51:21;34.97;;;19.20;;
65077;SDS011;51672;51.230;-2.322;2023-02-21T19:55:05;33.22;;;19.25;;
65077;SDS011;51672;51.230;-2.322;2023-02-21T19:58:47;31.83;;;19.08;;
65077;SDS011;51672;51.230;-2.322;2023-02-21T20:02:29;33.88;;;19.42;;
65077;SDS011;51672;51.230;-2.322;2023-02-21T20:06:12;32.05;;;19.63;;
65077;SDS011;51672;51.230;-2.322;2023-02-21T20:09:54;32.73;;;19.13;;
65077;SDS011;51672;51.230;-2.322;2023-02-21T20:13:36;31.05;;;19.00;;
65077;SDS011;51672;51.230;-2.322;2023-02-21T20:17:19;32.78;;;20.17;;
65077;SDS011;51672;51.230;-2.322;2023-02-21T20:21:01;32.60;;;19.03;;
65077;SDS011;51672;51.230;-2.322;2023-02-21T20:24:43;36.13;;;20.15;;
65077;SDS011;51672;51.230;-2.322;2023-02-21T20:28:26;33.20;;;19.60;;
65077;SDS011;51672;51.230;-2.322;2023-02-21T20:32:08;30.73;;;18.67;;
65077;SDS011;51672;51.230;-2.322;2023-02-21T20:35:51;31.30;;;18.33;;
65077;SDS011;51672;51.230;-2.322;2023-02-21T20:43:34;35.03;;;20.70;;
65077;SDS011;51672;51.230;-2.322;2023-02-21T20:47:17;33.63;;;19.40;;
65077;SDS011;51672;51.230;-2.322;2023-02-21T20:51:02;35.33;;;21.58;;
65077;SDS011;51672;51.230;-2.322;2023-02-21T20:54:46;35.17;;;19.70;;
65077;SDS011;51672;51.230;-2.322;2023-02-21T20:58:29;35.90;;;20.43;;
65077;SDS011;51672;51.230;-2.322;2023-02-21T21:02:11;41.33;;;20.75;;
65077;SDS011;51672;51.230;-2.322;2023-02-21T21:05:54;38.92;;;23.60;;
65077;SDS011;51672;51.230;-2.322;2023-02-21T21:09:36;41.15;;;22.38;;
65077;SDS011;51672;51.230;-2.322;2023-02-21T21:13:19;38.30;;;21.67;;
65077;SDS011;51672;51.230;-2.322;2023-02-21T21:17:01;41.13;;;20.80;;
65077;SDS011;51672;51.230;-2.322;2023-02-21T21:20:44;37.08;;;21.33;;
65077;SDS011;51672;51.230;-2.322;2023-02-21T21:24:26;36.83;;;20.73;;
65077;SDS011;51672;51.230;-2.322;2023-02-21T21:28:09;34.92;;;19.42;;
65077;SDS011;51672;51.230;-2.322;2023-02-21T21:31:53;35.83;;;20.00;;
65077;SDS011;51672;51.230;-2.322;2023-02-21T21:35:35;36.40;;;20.07;;
65077;SDS011;51672;51.230;-2.322;2023-02-21T21:39:18;32.03;;;18.13;;
65077;SDS011;51672;51.230;-2.322;2023-02-21T21:43:03;36.38;;;20.33;;
65077;SDS011;51672;51.230;-2.322;2023-02-21T21:46:48;35.17;;;18.27;;
65077;SDS011;51672;51.230;-2.322;2023-02-21T21:50:31;35.45;;;18.15;;
65077;SDS011;51672;51.230;-2.322;2023-02-21T21:54:15;32.72;;;17.13;;
65077;SDS011;51672;51.230;-2.322;2023-02-21T21:58:01;34.20;;;17.35;;
65077;SDS011;51672;51.230;-2.322;2023-02-21T22:01:51;32.27;;;15.90;;
65077;SDS011;51672;51.230;-2.322;2023-02-21T22:05:38;31.02;;;16.17;;
65077;SDS011;51672;51.230;-2.322;2023-02-21T22:09:23;31.15;;;15.60;;
65077;SDS011;51672;51.230;-2.322;2023-02-21T22:13:06;32.10;;;15.27;;
65077;SDS011;51672;51.230;-2.322;2023-02-21T22:16:54;34.08;;;16.17;;
65077;SDS011;51672;51.230;-2.322;2023-02-21T22:20:36;32.33;;;15.45;;
65077;SDS011;51672;51.230;-2.322;2023-02-21T22:24:18;34.27;;;16.33;;
65077;SDS011;51672;51.230;-2.322;2023-02-21T22:28:04;32.40;;;16.40;;
65077;SDS011;51672;51.230;-2.322;2023-02-21T22:31:50;34.50;;;16.38;;
65077;SDS011;51672;51.230;-2.322;2023-02-21T22:35:32;31.85;;;16.23;;
65077;SDS011;51672;51.230;-2.322;2023-02-21T22:39:15;32.33;;;14.63;;
65077;SDS011;51672;51.230;-2.322;2023-02-21T22:42:57;34.67;;;15.98;;
65077;SDS011;51672;51.230;-2.322;2023-02-21T22:46:42;30.95;;;15.93;;
65077;SDS011;51672;51.230;-2.322;2023-02-21T22:50:26;31.30;;;15.93;;
65077;SDS011;51672;51.230;-2.322;2023-02-21T22:54:09;34.60;;;16.38;;
65077;SDS011;51672;51.230;-2.322;2023-02-21T22:57:58;34.40;;;16.25;;
65077;SDS011;51672;51.230;-2.322;2023-02-21T23:01:41;33.47;;;16.23;;
65077;SDS011;51672;51.230;-2.322;2023-02-21T23:05:25;34.22;;;16.13;;
65077;SDS011;51672;51.230;-2.322;2023-02-21T23:09:07;31.90;;;15.02;;
65077;SDS011;51672;51.230;-2.322;2023-02-21T23:12:55;33.00;;;16.15;;
65077;SDS011;51672;51.230;-2.322;2023-02-21T23:16:39;33.13;;;15.57;;
65077;SDS011;51672;51.230;-2.322;2023-02-21T23:20:22;33.35;;;16.40;;
65077;SDS011;51672;51.230;-2.322;2023-02-21T23:24:06;32.88;;;16.13;;
65077;SDS011;51672;51.230;-2.322;2023-02-21T23:27:52;32.83;;;16.13;;
65077;SDS011;51672;51.230;-2.322;2023-02-21T23:31:39;33.00;;;15.45;;
65077;SDS011;51672;51.230;-2.322;2023-02-21T23:35:21;36.80;;;16.75;;
65077;SDS011;51672;51.230;-2.322;2023-02-21T23:39:04;35.13;;;16.55;;
65077;SDS011;51672;51.230;-2.322;2023-02-21T23:42:50;31.33;;;15.10;;
65077;SDS011;51672;51.230;-2.322;2023-02-21T23:46:35;33.38;;;16.30;;
65077;SDS011;51672;51.230;-2.322;2023-02-21T23:50:24;34.20;;;16.17;;
65077;SDS011;51672;51.230;-2.322;2023-02-21T23:54:11;33.13;;;15.30;;
65077;SDS011;51672;51.230;-2.322;2023-02-21T23:57:57;41.35;;;16.20;;
